Capt. Harry — WDC3690 — position and weather

sailwx.info

Track history (hours):
 
Tides and Currents Weather Stations Pressure Air Temp Water Temp Dewpoint Dewpoint Depression Visibility Wind Speed Wind Dir Waves Ship Positions

Capt. Harry

Owner: Wilmington Tug, Inc., New Castle, DE. More information available from US FCC via Universal Licensing System and Coast Guard Vessel Documentation Center.

Last reported at 2016-Sep-25 04:33 UTC. Time now 2016-Sep-25 07:11 UTC.
Position N 39°55' W 075°13'.

Type: Tug. MMSI: 367012530.

Date/timePositionNaut miles runAvg speedWind from/ knotsBaromVisibWave heightAir tempDewpointWater temp
2016-Sep-25 04:33N 39°55' W 075°13'2 0.5
2016-Sep-25 00:33N 39°53' W 075°11'0 0.1
2016-Sep-24 22:33N 39°53' W 075°11'0 0.2
2016-Sep-24 21:34N 39°53' W 075°11'0 0.0
2016-Sep-24 19:33N 39°53' W 075°11'0 0.0
2016-Sep-24 18:33N 39°53' W 075°11'0 0.0
2016-Sep-24 17:33N 39°53' W 075°11'7 6.9
2016-Sep-24 16:33N 39°59' W 075°06'10 2.6
2016-Sep-24 12:33N 40°04' W 074°54'12 5.8
2016-Sep-24 10:34N 39°58' W 075°07'1 1.1
2016-Sep-24 09:33N 39°59' W 075°06'0 0.0
2016-Sep-24 03:34N 39°59' W 075°06'0 0.3
2016-Sep-24 02:34N 39°59' W 075°05'1 0.6
2016-Sep-24 01:34N 39°58' W 075°06'6 6.5
2016-Sep-24 00:33N 39°53' W 075°11'0 0.1
2016-Sep-23 19:34N 39°53' W 075°11'0 0.0
2016-Sep-23 17:34N 39°53' W 075°11'0 0.0
2016-Sep-23 16:33N 39°53' W 075°11'0 0.0
2016-Sep-23 15:34N 39°53' W 075°11'7 3.6
2016-Sep-23 13:33N 39°59' W 075°05'0 0.1
2016-Sep-23 09:34N 39°59' W 075°05'7 2.2
2016-Sep-23 06:33N 39°53' W 075°10'1 0.5
2016-Sep-23 04:33N 39°53' W 075°11'0 0.3
2016-Sep-23 03:33N 39°53' W 075°11'7 7.0
2016-Sep-23 02:34N 39°59' W 075°05'8 8.1
2016-Sep-23 01:33N 40°04' W 074°57'7 6.6
2016-Sep-23 00:33N 40°07' W 074°50'15 3.7
2016-Sep-22 20:34N 39°59' W 075°06'0 0.0
2016-Sep-22 12:33N 39°59' W 075°06'0 0.0
2016-Sep-22 04:33N 39°59' W 075°06'0 0.0
2016-Sep-22 03:34N 39°59' W 075°06'4 1.3
2016-Sep-22 00:31N 39°55' W 075°08'2 2.6
2016-Sep-21 23:33N 39°53' W 075°10'1 1.2
2016-Sep-21 22:33N 39°53' W 075°11'0 0.0
2016-Sep-21 19:33N 39°53' W 075°11'0 0.0
2016-Sep-21 16:33N 39°53' W 075°11'2 0.3
2016-Sep-21 09:33N 39°54' W 075°08'0 0.0
2016-Sep-21 08:33N 39°54' W 075°08'0 0.0
2016-Sep-21 05:33N 39°54' W 075°08'0 0.0
2016-Sep-21 03:33N 39°54' W 075°08'0 0.0
2016-Sep-21 02:33N 39°54' W 075°08'14 1.5
2016-Sep-20 17:33N 39°48' W 075°25'7 2.4
2016-Sep-20 14:33N 39°51' W 075°16'0 0.0
2016-Sep-20 13:33N 39°51' W 075°16'2 0.8
2016-Sep-20 10:33N 39°52' W 075°13'3 1.6
2016-Sep-20 08:33N 39°53' W 075°09'1 1.1
2016-Sep-20 07:33N 39°54' W 075°08'0 0.0
2016-Sep-20 06:33N 39°54' W 075°08'0 0.0
2016-Sep-20 02:33N 39°54' W 075°08'4 1.4
2016-Sep-19 23:33N 39°52' W 075°13'4 1.1
2016-Sep-19 19:33N 39°54' W 075°08'0 0.1
2016-Sep-19 18:33N 39°54' W 075°08'0 0.1
2016-Sep-19 16:33N 39°54' W 075°08'0 0.0
2016-Sep-19 14:33N 39°54' W 075°08'0 0.0
2016-Sep-19 13:33N 39°54' W 075°08'0 0.0
2016-Sep-19 12:33N 39°54' W 075°08'0 0.0
2016-Sep-19 11:33N 39°54' W 075°08'0 0.1
2016-Sep-19 09:33N 39°54' W 075°08'0 0.1
2016-Sep-19 07:33N 39°54' W 075°08'0 0.0
2016-Sep-19 06:33N 39°54' W 075°08'0 0.0
2016-Sep-19 03:33N 39°54' W 075°08'0 0.0
2016-Sep-19 02:33N 39°54' W 075°08'0 0.0
2016-Sep-19 00:33N 39°54' W 075°08'0 0.1
2016-Sep-18 19:33N 39°54' W 075°08'2 0.6
2016-Sep-18 15:33N 39°53' W 075°11'0 0.0
2016-Sep-18 14:33N 39°53' W 075°11'0 0.0
2016-Sep-18 10:33N 39°53' W 075°11'0 0.0
2016-Sep-18 09:33N 39°53' W 075°11'9 1.3
2016-Sep-18 02:33N 39°60' W 075°04'8 7.8
2016-Sep-18 01:33N 40°04' W 074°55'7 7.0
2016-Sep-18 00:33N 40°07' W 074°47'1 0.5
2016-Sep-17 22:23N 40°07' W 074°48'6 6.4
2016-Sep-17 21:26N 40°04' W 074°55'7 8.1
2016-Sep-17 20:33N 40°01' W 075°03'10 7.6
2016-Sep-17 19:16N 39°53' W 075°11'1 0.2
2016-Sep-17 13:33N 39°53' W 075°12'1 1.0
2016-Sep-17 12:33N 39°53' W 075°11'0 0.0
2016-Sep-17 10:33N 39°53' W 075°11'1 1.0
2016-Sep-17 09:33N 39°54' W 075°12'1 1.0
2016-Sep-17 08:33N 39°53' W 075°11'0 0.0
2016-Sep-17 07:33N 39°53' W 075°11'0 0.0
2016-Sep-17 05:33N 39°53' W 075°11'0 0.0
2016-Sep-17 04:33N 39°53' W 075°11'0 0.0
2016-Sep-17 00:33N 39°53' W 075°11'4 0.6
2016-Sep-16 17:33N 39°51' W 075°16'0 0.0
2016-Sep-16 15:33N 39°51' W 075°16'0 0.0
2016-Sep-16 12:33N 39°51' W 075°16'0 0.0
2016-Sep-16 09:33N 39°51' W 075°16'0 0.0
2016-Sep-16 07:33N 39°51' W 075°16'2 0.4
2016-Sep-16 03:33N 39°51' W 075°14'0 0.0
2016-Sep-16 02:33N 39°51' W 075°14'2 0.8
2016-Sep-16 00:32N 39°51' W 075°16'7 3.4
2016-Sep-15 22:33N 39°54' W 075°08'0 0.2
2016-Sep-15 21:34N 39°54' W 075°08'1 0.8
2016-Sep-15 20:33N 39°53' W 075°09'6 3.1
2016-Sep-15 18:33N 39°51' W 075°16'7 1.1
2016-Sep-15 12:33N 39°54' W 075°08'0 0.0
2016-Sep-15 11:33N 39°54' W 075°08'0 0.0
2016-Sep-15 04:33N 39°54' W 075°08'  
Track history (hours):
 
Tides and Currents Weather Stations Pressure Air Temp Water Temp Dewpoint Dewpoint Depression Visibility Wind Speed Wind Dir Waves Ship Positions

Capt. Harry

Owner: Wilmington Tug, Inc., New Castle, DE. More information available from US FCC via Universal Licensing System and Coast Guard Vessel Documentation Center.

Last reported at 2016-Sep-25 04:33 UTC. Time now 2016-Sep-25 07:11 UTC.
Position N 39°55' W 075°13'.

Type: Tug. MMSI: 367012530.

Date/timePositionNaut miles runAvg speedWind from/ knotsBaromVisibWave heightAir tempDewpointWater temp
2016-Sep-25 04:33N 39°55' W 075°13'2 0.5
2016-Sep-25 00:33N 39°53' W 075°11'0 0.1
2016-Sep-24 22:33N 39°53' W 075°11'0 0.2
2016-Sep-24 21:34N 39°53' W 075°11'0 0.0
2016-Sep-24 19:33N 39°53' W 075°11'0 0.0
2016-Sep-24 18:33N 39°53' W 075°11'0 0.0
2016-Sep-24 17:33N 39°53' W 075°11'7 6.9
2016-Sep-24 16:33N 39°59' W 075°06'10 2.6
2016-Sep-24 12:33N 40°04' W 074°54'12 5.8
2016-Sep-24 10:34N 39°58' W 075°07'1 1.1
2016-Sep-24 09:33N 39°59' W 075°06'0 0.0
2016-Sep-24 03:34N 39°59' W 075°06'0 0.3
2016-Sep-24 02:34N 39°59' W 075°05'1 0.6
2016-Sep-24 01:34N 39°58' W 075°06'6 6.5
2016-Sep-24 00:33N 39°53' W 075°11'0 0.1
2016-Sep-23 19:34N 39°53' W 075°11'0 0.0
2016-Sep-23 17:34N 39°53' W 075°11'0 0.0
2016-Sep-23 16:33N 39°53' W 075°11'0 0.0
2016-Sep-23 15:34N 39°53' W 075°11'7 3.6
2016-Sep-23 13:33N 39°59' W 075°05'0 0.1
2016-Sep-23 09:34N 39°59' W 075°05'7 2.2
2016-Sep-23 06:33N 39°53' W 075°10'1 0.5
2016-Sep-23 04:33N 39°53' W 075°11'0 0.3
2016-Sep-23 03:33N 39°53' W 075°11'7 7.0
2016-Sep-23 02:34N 39°59' W 075°05'8 8.1
2016-Sep-23 01:33N 40°04' W 074°57'7 6.6
2016-Sep-23 00:33N 40°07' W 074°50'15 3.7
2016-Sep-22 20:34N 39°59' W 075°06'0 0.0
2016-Sep-22 12:33N 39°59' W 075°06'0 0.0
2016-Sep-22 04:33N 39°59' W 075°06'0 0.0
2016-Sep-22 03:34N 39°59' W 075°06'4 1.3
2016-Sep-22 00:31N 39°55' W 075°08'2 2.6
2016-Sep-21 23:33N 39°53' W 075°10'1 1.2
2016-Sep-21 22:33N 39°53' W 075°11'0 0.0
2016-Sep-21 19:33N 39°53' W 075°11'0 0.0
2016-Sep-21 16:33N 39°53' W 075°11'2 0.3
2016-Sep-21 09:33N 39°54' W 075°08'0 0.0
2016-Sep-21 08:33N 39°54' W 075°08'0 0.0
2016-Sep-21 05:33N 39°54' W 075°08'0 0.0
2016-Sep-21 03:33N 39°54' W 075°08'0 0.0
2016-Sep-21 02:33N 39°54' W 075°08'14 1.5
2016-Sep-20 17:33N 39°48' W 075°25'7 2.4
2016-Sep-20 14:33N 39°51' W 075°16'0 0.0
2016-Sep-20 13:33N 39°51' W 075°16'2 0.8
2016-Sep-20 10:33N 39°52' W 075°13'3 1.6
2016-Sep-20 08:33N 39°53' W 075°09'1 1.1
2016-Sep-20 07:33N 39°54' W 075°08'0 0.0
2016-Sep-20 06:33N 39°54' W 075°08'0 0.0
2016-Sep-20 02:33N 39°54' W 075°08'4 1.4
2016-Sep-19 23:33N 39°52' W 075°13'4 1.1
2016-Sep-19 19:33N 39°54' W 075°08'0 0.1
2016-Sep-19 18:33N 39°54' W 075°08'0 0.1
2016-Sep-19 16:33N 39°54' W 075°08'0 0.0
2016-Sep-19 14:33N 39°54' W 075°08'0 0.0
2016-Sep-19 13:33N 39°54' W 075°08'0 0.0
2016-Sep-19 12:33N 39°54' W 075°08'0 0.0
2016-Sep-19 11:33N 39°54' W 075°08'0 0.1
2016-Sep-19 09:33N 39°54' W 075°08'0 0.1
2016-Sep-19 07:33N 39°54' W 075°08'0 0.0
2016-Sep-19 06:33N 39°54' W 075°08'0 0.0
2016-Sep-19 03:33N 39°54' W 075°08'0 0.0
2016-Sep-19 02:33N 39°54' W 075°08'0 0.0
2016-Sep-19 00:33N 39°54' W 075°08'0 0.1
2016-Sep-18 19:33N 39°54' W 075°08'2 0.6
2016-Sep-18 15:33N 39°53' W 075°11'0 0.0
2016-Sep-18 14:33N 39°53' W 075°11'0 0.0
2016-Sep-18 10:33N 39°53' W 075°11'0 0.0
2016-Sep-18 09:33N 39°53' W 075°11'9 1.3
2016-Sep-18 02:33N 39°60' W 075°04'8 7.8
2016-Sep-18 01:33N 40°04' W 074°55'7 7.0
2016-Sep-18 00:33N 40°07' W 074°47'1 0.5
2016-Sep-17 22:23N 40°07' W 074°48'6 6.4
2016-Sep-17 21:26N 40°04' W 074°55'7 8.1
2016-Sep-17 20:33N 40°01' W 075°03'10 7.6
2016-Sep-17 19:16N 39°53' W 075°11'1 0.2
2016-Sep-17 13:33N 39°53' W 075°12'1 1.0
2016-Sep-17 12:33N 39°53' W 075°11'0 0.0
2016-Sep-17 10:33N 39°53' W 075°11'1 1.0
2016-Sep-17 09:33N 39°54' W 075°12'1 1.0
2016-Sep-17 08:33N 39°53' W 075°11'0 0.0
2016-Sep-17 07:33N 39°53' W 075°11'0 0.0
2016-Sep-17 05:33N 39°53' W 075°11'0 0.0
2016-Sep-17 04:33N 39°53' W 075°11'0 0.0
2016-Sep-17 00:33N 39°53' W 075°11'4 0.6
2016-Sep-16 17:33N 39°51' W 075°16'0 0.0
2016-Sep-16 15:33N 39°51' W 075°16'0 0.0
2016-Sep-16 12:33N 39°51' W 075°16'0 0.0
2016-Sep-16 09:33N 39°51' W 075°16'0 0.0
2016-Sep-16 07:33N 39°51' W 075°16'2 0.4
2016-Sep-16 03:33N 39°51' W 075°14'0 0.0
2016-Sep-16 02:33N 39°51' W 075°14'2 0.8
2016-Sep-16 00:32N 39°51' W 075°16'7 3.4
2016-Sep-15 22:33N 39°54' W 075°08'0 0.2
2016-Sep-15 21:34N 39°54' W 075°08'1 0.8
2016-Sep-15 20:33N 39°53' W 075°09'6 3.1
2016-Sep-15 18:33N 39°51' W 075°16'7 1.1
2016-Sep-15 12:33N 39°54' W 075°08'0 0.0
2016-Sep-15 11:33N 39°54' W 075°08'0 0.0
2016-Sep-15 04:33N 39°54' W 075°08'  

Dump ship's entire track history